sensor_id;sensor_type;location;lat;lon;timestamp;P1;durP1;ratioP1;P2;durP2;ratioP2
16965;SDS011;8599;47.852;12.070;2022-08-19T00:00:06;7.22;;;3.53;;
16965;SDS011;8599;47.852;12.070;2022-08-19T00:02:34;3.95;;;3.47;;
16965;SDS011;8599;47.852;12.070;2022-08-19T00:05:03;3.40;;;3.10;;
16965;SDS011;8599;47.852;12.070;2022-08-19T00:07:31;3.50;;;3.20;;
16965;SDS011;8599;47.852;12.070;2022-08-19T00:09:57;3.17;;;2.88;;
16965;SDS011;8599;47.852;12.070;2022-08-19T00:12:24;3.45;;;3.15;;
16965;SDS011;8599;47.852;12.070;2022-08-19T00:14:51;4.43;;;3.30;;
16965;SDS011;8599;47.852;12.070;2022-08-19T00:17:19;3.40;;;3.20;;
16965;SDS011;8599;47.852;12.070;2022-08-19T00:19:46;3.42;;;2.90;;
16965;SDS011;8599;47.852;12.070;2022-08-19T00:22:14;3.35;;;3.05;;
16965;SDS011;8599;47.852;12.070;2022-08-19T00:24:42;3.10;;;2.90;;
16965;SDS011;8599;47.852;12.070;2022-08-19T00:27:10;3.08;;;2.88;;
16965;SDS011;8599;47.852;12.070;2022-08-19T00:29:37;3.15;;;2.95;;
16965;SDS011;8599;47.852;12.070;2022-08-19T00:32:04;3.00;;;2.80;;
16965;SDS011;8599;47.852;12.070;2022-08-19T00:34:31;3.20;;;2.90;;
16965;SDS011;8599;47.852;12.070;2022-08-19T00:36:58;2.80;;;2.60;;
16965;SDS011;8599;47.852;12.070;2022-08-19T00:39:26;3.20;;;2.90;;
16965;SDS011;8599;47.852;12.070;2022-08-19T00:41:53;2.80;;;2.60;;
16965;SDS011;8599;47.852;12.070;2022-08-19T00:44:23;2.30;;;2.20;;
16965;SDS011;8599;47.852;12.070;2022-08-19T00:46:53;2.88;;;2.67;;
16965;SDS011;8599;47.852;12.070;2022-08-19T00:49:22;2.92;;;2.72;;
16965;SDS011;8599;47.852;12.070;2022-08-19T00:51:55;2.67;;;2.47;;
16965;SDS011;8599;47.852;12.070;2022-08-19T00:54:27;3.78;;;2.30;;
16965;SDS011;8599;47.852;12.070;2022-08-19T00:56:56;2.30;;;2.10;;
16965;SDS011;8599;47.852;12.070;2022-08-19T00:59:24;2.80;;;2.50;;
16965;SDS011;8599;47.852;12.070;2022-08-19T01:01:52;5.40;;;2.75;;
16965;SDS011;8599;47.852;12.070;2022-08-19T01:04:19;3.30;;;2.58;;
16965;SDS011;8599;47.852;12.070;2022-08-19T01:06:45;2.88;;;2.65;;
16965;SDS011;8599;47.852;12.070;2022-08-19T01:09:12;2.60;;;2.40;;
16965;SDS011;8599;47.852;12.070;2022-08-19T01:11:41;3.45;;;2.42;;
16965;SDS011;8599;47.852;12.070;2022-08-19T01:14:10;3.08;;;2.53;;
16965;SDS011;8599;47.852;12.070;2022-08-19T01:16:39;2.85;;;2.38;;
16965;SDS011;8599;47.852;12.070;2022-08-19T01:19:09;3.50;;;2.40;;
16965;SDS011;8599;47.852;12.070;2022-08-19T01:21:43;2.47;;;2.28;;
16965;SDS011;8599;47.852;12.070;2022-08-19T01:24:17;2.50;;;2.30;;
16965;SDS011;8599;47.852;12.070;2022-08-19T01:26:44;2.22;;;2.13;;
16965;SDS011;8599;47.852;12.070;2022-08-19T01:29:11;2.45;;;2.35;;
16965;SDS011;8599;47.852;12.070;2022-08-19T01:31:38;2.50;;;2.30;;
16965;SDS011;8599;47.852;12.070;2022-08-19T01:34:06;3.72;;;2.13;;
16965;SDS011;8599;47.852;12.070;2022-08-19T01:36:35;2.28;;;2.08;;
16965;SDS011;8599;47.852;12.070;2022-08-19T01:39:04;2.38;;;2.17;;
16965;SDS011;8599;47.852;12.070;2022-08-19T01:41:34;2.17;;;2.08;;
16965;SDS011;8599;47.852;12.070;2022-08-19T01:44:04;2.40;;;2.20;;
16965;SDS011;8599;47.852;12.070;2022-08-19T01:46:32;2.05;;;1.95;;
16965;SDS011;8599;47.852;12.070;2022-08-19T01:48:59;2.38;;;2.17;;
16965;SDS011;8599;47.852;12.070;2022-08-19T01:51:26;2.10;;;2.00;;
16965;SDS011;8599;47.852;12.070;2022-08-19T01:53:53;2.15;;;2.03;;
16965;SDS011;8599;47.852;12.070;2022-08-19T01:56:20;2.05;;;1.90;;
16965;SDS011;8599;47.852;12.070;2022-08-19T01:58:50;2.15;;;1.92;;
16965;SDS011;8599;47.852;12.070;2022-08-19T02:01:20;1.65;;;1.52;;
16965;SDS011;8599;47.852;12.070;2022-08-19T02:03:46;8.63;;;2.03;;
16965;SDS011;8599;47.852;12.070;2022-08-19T02:06:13;1.65;;;1.55;;
16965;SDS011;8599;47.852;12.070;2022-08-19T02:08:42;2.33;;;1.60;;
16965;SDS011;8599;47.852;12.070;2022-08-19T02:11:17;1.63;;;1.50;;
16965;SDS011;8599;47.852;12.070;2022-08-19T02:13:45;1.33;;;1.23;;
16965;SDS011;8599;47.852;12.070;2022-08-19T02:16:15;1.70;;;1.60;;
16965;SDS011;8599;47.852;12.070;2022-08-19T02:18:43;1.52;;;1.42;;
16965;SDS011;8599;47.852;12.070;2022-08-19T02:21:10;1.77;;;1.65;;
16965;SDS011;8599;47.852;12.070;2022-08-19T02:23:37;2.00;;;1.60;;
16965;SDS011;8599;47.852;12.070;2022-08-19T02:26:05;6.73;;;1.57;;
16965;SDS011;8599;47.852;12.070;2022-08-19T02:28:32;4.07;;;1.87;;
16965;SDS011;8599;47.852;12.070;2022-08-19T02:30:59;1.60;;;1.50;;
16965;SDS011;8599;47.852;12.070;2022-08-19T02:33:29;1.80;;;1.70;;
16965;SDS011;8599;47.852;12.070;2022-08-19T02:35:56;1.87;;;1.77;;
16965;SDS011;8599;47.852;12.070;2022-08-19T02:38:23;1.92;;;1.50;;
16965;SDS011;8599;47.852;12.070;2022-08-19T02:40:52;1.60;;;1.50;;
16965;SDS011;8599;47.852;12.070;2022-08-19T02:43:20;1.63;;;1.50;;
16965;SDS011;8599;47.852;12.070;2022-08-19T02:45:48;1.58;;;1.48;;
16965;SDS011;8599;47.852;12.070;2022-08-19T02:48:16;2.85;;;1.75;;
16965;SDS011;8599;47.852;12.070;2022-08-19T02:50:46;2.05;;;1.17;;
16965;SDS011;8599;47.852;12.070;2022-08-19T02:53:17;2.00;;;1.60;;
16965;SDS011;8599;47.852;12.070;2022-08-19T02:55:44;1.80;;;1.70;;
16965;SDS011;8599;47.852;12.070;2022-08-19T02:58:12;1.70;;;1.60;;
16965;SDS011;8599;47.852;12.070;2022-08-19T03:00:41;2.00;;;1.75;;
16965;SDS011;8599;47.852;12.070;2022-08-19T03:03:09;3.37;;;1.50;;
16965;SDS011;8599;47.852;12.070;2022-08-19T03:05:36;2.78;;;1.92;;
16965;SDS011;8599;47.852;12.070;2022-08-19T03:08:04;1.83;;;1.73;;
16965;SDS011;8599;47.852;12.070;2022-08-19T03:10:31;2.38;;;1.70;;
16965;SDS011;8599;47.852;12.070;2022-08-19T03:12:59;1.60;;;1.50;;
16965;SDS011;8599;47.852;12.070;2022-08-19T03:15:25;3.10;;;1.35;;
16965;SDS011;8599;47.852;12.070;2022-08-19T03:17:52;1.50;;;1.40;;
16965;SDS011;8599;47.852;12.070;2022-08-19T03:20:19;1.70;;;1.60;;
16965;SDS011;8599;47.852;12.070;2022-08-19T03:22:46;1.65;;;1.55;;
16965;SDS011;8599;47.852;12.070;2022-08-19T03:25:14;2.03;;;1.60;;
16965;SDS011;8599;47.852;12.070;2022-08-19T03:27:41;2.58;;;1.55;;
16965;SDS011;8599;47.852;12.070;2022-08-19T03:30:09;1.60;;;1.50;;
16965;SDS011;8599;47.852;12.070;2022-08-19T03:32:37;1.47;;;1.37;;
16965;SDS011;8599;47.852;12.070;2022-08-19T03:35:04;2.80;;;1.57;;
16965;SDS011;8599;47.852;12.070;2022-08-19T03:37:31;2.10;;;1.30;;
16965;SDS011;8599;47.852;12.070;2022-08-19T03:39:58;1.10;;;1.10;;
16965;SDS011;8599;47.852;12.070;2022-08-19T03:42:26;1.57;;;1.47;;
16965;SDS011;8599;47.852;12.070;2022-08-19T03:44:53;1.60;;;1.50;;
16965;SDS011;8599;47.852;12.070;2022-08-19T03:47:20;1.90;;;1.63;;
16965;SDS011;8599;47.852;12.070;2022-08-19T03:49:47;5.30;;;1.83;;
16965;SDS011;8599;47.852;12.070;2022-08-19T03:52:14;1.37;;;1.37;;
16965;SDS011;8599;47.852;12.070;2022-08-19T03:54:41;2.15;;;1.30;;
16965;SDS011;8599;47.852;12.070;2022-08-19T03:57:08;2.17;;;1.40;;
16965;SDS011;8599;47.852;12.070;2022-08-19T03:59:38;1.50;;;1.40;;
16965;SDS011;8599;47.852;12.070;2022-08-19T04:02:08;2.40;;;1.23;;
16965;SDS011;8599;47.852;12.070;2022-08-19T04:04:36;1.48;;;1.35;;
16965;SDS011;8599;47.852;12.070;2022-08-19T04:07:04;1.10;;;1.10;;
16965;SDS011;8599;47.852;12.070;2022-08-19T04:09:33;1.42;;;1.33;;
16965;SDS011;8599;47.852;12.070;2022-08-19T04:12:01;1.38;;;1.27;;
16965;SDS011;8599;47.852;12.070;2022-08-19T04:14:30;1.33;;;1.30;;
16965;SDS011;8599;47.852;12.070;2022-08-19T04:16:58;1.98;;;1.40;;
16965;SDS011;8599;47.852;12.070;2022-08-19T04:19:28;1.90;;;1.30;;
16965;SDS011;8599;47.852;12.070;2022-08-19T04:21:56;2.30;;;1.63;;
16965;SDS011;8599;47.852;12.070;2022-08-19T04:24:23;1.50;;;1.40;;
16965;SDS011;8599;47.852;12.070;2022-08-19T04:26:50;1.43;;;1.33;;
16965;SDS011;8599;47.852;12.070;2022-08-19T04:29:20;1.67;;;1.30;;
16965;SDS011;8599;47.852;12.070;2022-08-19T04:31:50;1.20;;;1.20;;
16965;SDS011;8599;47.852;12.070;2022-08-19T04:34:20;1.40;;;1.30;;
16965;SDS011;8599;47.852;12.070;2022-08-19T04:36:49;2.13;;;1.40;;
16965;SDS011;8599;47.852;12.070;2022-08-19T04:39:18;2.63;;;1.60;;
16965;SDS011;8599;47.852;12.070;2022-08-19T04:41:48;1.63;;;1.53;;
16965;SDS011;8599;47.852;12.070;2022-08-19T04:44:33;4.60;;;1.85;;
16965;SDS011;8599;47.852;12.070;2022-08-19T04:47:01;1.60;;;1.50;;
16965;SDS011;8599;47.852;12.070;2022-08-19T04:49:31;3.28;;;1.60;;
16965;SDS011;8599;47.852;12.070;2022-08-19T04:51:58;2.93;;;1.60;;
16965;SDS011;8599;47.852;12.070;2022-08-19T04:54:25;1.65;;;1.55;;
16965;SDS011;8599;47.852;12.070;2022-08-19T04:56:53;5.83;;;1.90;;
16965;SDS011;8599;47.852;12.070;2022-08-19T04:59:20;1.80;;;1.70;;
16965;SDS011;8599;47.852;12.070;2022-08-19T05:01:47;1.97;;;1.87;;
16965;SDS011;8599;47.852;12.070;2022-08-19T05:04:15;3.13;;;2.23;;
16965;SDS011;8599;47.852;12.070;2022-08-19T05:06:44;2.00;;;1.90;;
16965;SDS011;8599;47.852;12.070;2022-08-19T05:09:12;3.93;;;2.10;;
16965;SDS011;8599;47.852;12.070;2022-08-19T05:11:39;4.43;;;2.80;;
16965;SDS011;8599;47.852;12.070;2022-08-19T05:14:07;3.08;;;2.30;;
16965;SDS011;8599;47.852;12.070;2022-08-19T05:16:34;2.50;;;2.30;;
16965;SDS011;8599;47.852;12.070;2022-08-19T05:19:01;2.53;;;2.27;;
16965;SDS011;8599;47.852;12.070;2022-08-19T05:21:47;7.83;;;2.87;;
16965;SDS011;8599;47.852;12.070;2022-08-19T05:24:31;3.50;;;2.60;;
16965;SDS011;8599;47.852;12.070;2022-08-19T05:26:59;3.55;;;2.78;;
16965;SDS011;8599;47.852;12.070;2022-08-19T05:29:28;3.13;;;2.80;;
16965;SDS011;8599;47.852;12.070;2022-08-19T05:31:57;3.33;;;2.60;;
16965;SDS011;8599;47.852;12.070;2022-08-19T05:34:24;2.70;;;2.50;;
16965;SDS011;8599;47.852;12.070;2022-08-19T05:36:54;5.70;;;2.93;;
16965;SDS011;8599;47.852;12.070;2022-08-19T05:39:24;3.20;;;2.90;;
16965;SDS011;8599;47.852;12.070;2022-08-19T05:41:53;3.40;;;3.10;;
16965;SDS011;8599;47.852;12.070;2022-08-19T05:44:22;4.10;;;2.87;;
16965;SDS011;8599;47.852;12.070;2022-08-19T05:46:50;3.73;;;2.40;;
16965;SDS011;8599;47.852;12.070;2022-08-19T05:49:19;3.63;;;2.93;;
16965;SDS011;8599;47.852;12.070;2022-08-19T05:51:47;4.82;;;3.03;;
16965;SDS011;8599;47.852;12.070;2022-08-19T05:54:15;3.07;;;2.80;;
16965;SDS011;8599;47.852;12.070;2022-08-19T05:56:43;2.77;;;2.57;;
16965;SDS011;8599;47.852;12.070;2022-08-19T05:59:12;5.10;;;2.80;;
16965;SDS011;8599;47.852;12.070;2022-08-19T06:01:41;3.20;;;2.90;;
16965;SDS011;8599;47.852;12.070;2022-08-19T06:04:09;2.67;;;2.47;;
16965;SDS011;8599;47.852;12.070;2022-08-19T06:06:37;3.97;;;2.80;;
16965;SDS011;8599;47.852;12.070;2022-08-19T06:09:04;3.77;;;2.60;;
16965;SDS011;8599;47.852;12.070;2022-08-19T06:11:37;4.10;;;3.10;;
16965;SDS011;8599;47.852;12.070;2022-08-19T06:14:09;3.25;;;2.95;;
16965;SDS011;8599;47.852;12.070;2022-08-19T06:16:38;3.25;;;2.90;;
16965;SDS011;8599;47.852;12.070;2022-08-19T06:19:07;3.87;;;3.10;;
16965;SDS011;8599;47.852;12.070;2022-08-19T06:21:35;3.87;;;2.63;;
16965;SDS011;8599;47.852;12.070;2022-08-19T06:24:04;4.00;;;3.17;;
16965;SDS011;8599;47.852;12.070;2022-08-19T06:26:33;3.58;;;2.97;;
16965;SDS011;8599;47.852;12.070;2022-08-19T06:29:03;3.50;;;3.20;;
16965;SDS011;8599;47.852;12.070;2022-08-19T06:31:31;4.60;;;3.07;;
16965;SDS011;8599;47.852;12.070;2022-08-19T06:34:00;28.40;;;17.87;;
16965;SDS011;8599;47.852;12.070;2022-08-19T06:36:29;7.67;;;5.93;;
16965;SDS011;8599;47.852;12.070;2022-08-19T06:39:00;3.70;;;3.00;;
16965;SDS011;8599;47.852;12.070;2022-08-19T06:41:30;5.73;;;3.80;;
16965;SDS011;8599;47.852;12.070;2022-08-19T06:44:01;5.17;;;3.50;;
16965;SDS011;8599;47.852;12.070;2022-08-19T06:46:29;3.77;;;3.27;;
16965;SDS011;8599;47.852;12.070;2022-08-19T06:48:56;4.10;;;3.50;;
16965;SDS011;8599;47.852;12.070;2022-08-19T06:51:24;4.43;;;3.43;;
16965;SDS011;8599;47.852;12.070;2022-08-19T06:53:52;8.47;;;4.97;;
16965;SDS011;8599;47.852;12.070;2022-08-19T06:56:23;6.40;;;4.60;;
16965;SDS011;8599;47.852;12.070;2022-08-19T06:58:55;4.35;;;3.63;;
16965;SDS011;8599;47.852;12.070;2022-08-19T07:01:24;10.00;;;4.45;;
16965;SDS011;8599;47.852;12.070;2022-08-19T07:03:51;4.80;;;3.80;;
16965;SDS011;8599;47.852;12.070;2022-08-19T07:06:18;6.63;;;3.85;;
16965;SDS011;8599;47.852;12.070;2022-08-19T07:08:46;3.57;;;3.27;;
16965;SDS011;8599;47.852;12.070;2022-08-19T07:11:16;3.50;;;3.20;;
16965;SDS011;8599;47.852;12.070;2022-08-19T07:13:44;7.80;;;3.78;;
16965;SDS011;8599;47.852;12.070;2022-08-19T07:16:14;2.85;;;2.63;;
16965;SDS011;8599;47.852;12.070;2022-08-19T07:18:44;5.35;;;3.15;;
16965;SDS011;8599;47.852;12.070;2022-08-19T07:21:11;3.33;;;2.90;;
16965;SDS011;8599;47.852;12.070;2022-08-19T07:23:40;6.10;;;4.43;;
16965;SDS011;8599;47.852;12.070;2022-08-19T07:26:08;4.45;;;3.53;;
16965;SDS011;8599;47.852;12.070;2022-08-19T07:28:36;6.60;;;3.47;;
16965;SDS011;8599;47.852;12.070;2022-08-19T07:31:04;4.68;;;2.97;;
16965;SDS011;8599;47.852;12.070;2022-08-19T07:33:32;7.90;;;3.85;;
16965;SDS011;8599;47.852;12.070;2022-08-19T07:36:02;4.30;;;3.80;;
16965;SDS011;8599;47.852;12.070;2022-08-19T07:38:30;4.30;;;3.80;;
16965;SDS011;8599;47.852;12.070;2022-08-19T07:40:57;3.88;;;3.40;;
16965;SDS011;8599;47.852;12.070;2022-08-19T07:43:24;6.63;;;4.10;;
16965;SDS011;8599;47.852;12.070;2022-08-19T07:45:51;7.97;;;4.05;;
16965;SDS011;8599;47.852;12.070;2022-08-19T07:48:21;4.97;;;4.47;;
16965;SDS011;8599;47.852;12.070;2022-08-19T07:50:48;5.50;;;4.07;;
16965;SDS011;8599;47.852;12.070;2022-08-19T07:53:16;5.93;;;5.20;;
16965;SDS011;8599;47.852;12.070;2022-08-19T07:55:43;4.68;;;3.95;;
16965;SDS011;8599;47.852;12.070;2022-08-19T07:58:11;4.75;;;4.35;;
16965;SDS011;8599;47.852;12.070;2022-08-19T08:00:40;4.90;;;4.20;;
16965;SDS011;8599;47.852;12.070;2022-08-19T08:03:07;5.50;;;5.00;;
16965;SDS011;8599;47.852;12.070;2022-08-19T08:05:35;4.10;;;3.70;;
16965;SDS011;8599;47.852;12.070;2022-08-19T08:08:20;5.10;;;4.60;;
16965;SDS011;8599;47.852;12.070;2022-08-19T08:11:01;4.95;;;4.32;;
16965;SDS011;8599;47.852;12.070;2022-08-19T08:13:28;4.70;;;4.28;;
16965;SDS011;8599;47.852;12.070;2022-08-19T08:15:55;6.03;;;4.10;;
16965;SDS011;8599;47.852;12.070;2022-08-19T08:18:23;4.65;;;4.13;;
16965;SDS011;8599;47.852;12.070;2022-08-19T08:20:50;5.30;;;4.60;;
16965;SDS011;8599;47.852;12.070;2022-08-19T08:23:17;5.85;;;4.65;;
16965;SDS011;8599;47.852;12.070;2022-08-19T08:25:52;6.20;;;4.47;;
16965;SDS011;8599;47.852;12.070;2022-08-19T08:28:21;3.90;;;3.60;;
16965;SDS011;8599;47.852;12.070;2022-08-19T08:30:49;4.25;;;3.40;;
16965;SDS011;8599;47.852;12.070;2022-08-19T08:33:17;3.92;;;3.35;;
16965;SDS011;8599;47.852;12.070;2022-08-19T08:35:45;5.18;;;3.60;;
16965;SDS011;8599;47.852;12.070;2022-08-19T08:38:12;4.10;;;3.67;;
16965;SDS011;8599;47.852;12.070;2022-08-19T08:40:44;4.65;;;4.07;;
16965;SDS011;8599;47.852;12.070;2022-08-19T08:43:21;4.72;;;4.32;;
16965;SDS011;8599;47.852;12.070;2022-08-19T08:45:52;8.50;;;4.47;;
16965;SDS011;8599;47.852;12.070;2022-08-19T08:48:27;5.68;;;4.65;;
16965;SDS011;8599;47.852;12.070;2022-08-19T08:51:03;4.82;;;4.22;;
16965;SDS011;8599;47.852;12.070;2022-08-19T08:53:33;5.07;;;4.57;;
16965;SDS011;8599;47.852;12.070;2022-08-19T08:56:03;6.00;;;4.38;;
16965;SDS011;8599;47.852;12.070;2022-08-19T08:58:45;5.70;;;4.90;;
16965;SDS011;8599;47.852;12.070;2022-08-19T09:01:16;4.50;;;4.10;;
16965;SDS011;8599;47.852;12.070;2022-08-19T09:03:44;6.80;;;4.88;;
16965;SDS011;8599;47.852;12.070;2022-08-19T09:06:12;6.28;;;4.65;;
16965;SDS011;8599;47.852;12.070;2022-08-19T09:08:46;4.18;;;3.78;;
16965;SDS011;8599;47.852;12.070;2022-08-19T09:11:19;5.93;;;4.97;;
16965;SDS011;8599;47.852;12.070;2022-08-19T09:13:56;4.18;;;3.75;;
16965;SDS011;8599;47.852;12.070;2022-08-19T09:16:35;5.57;;;4.10;;
16965;SDS011;8599;47.852;12.070;2022-08-19T09:19:06;3.58;;;3.28;;
16965;SDS011;8599;47.852;12.070;2022-08-19T09:21:34;3.50;;;3.20;;
16965;SDS011;8599;47.852;12.070;2022-08-19T09:24:01;4.95;;;3.50;;
16965;SDS011;8599;47.852;12.070;2022-08-19T09:26:29;5.43;;;3.22;;
16965;SDS011;8599;47.852;12.070;2022-08-19T09:28:59;4.05;;;2.88;;
16965;SDS011;8599;47.852;12.070;2022-08-19T09:31:27;7.97;;;4.57;;
16965;SDS011;8599;47.852;12.070;2022-08-19T09:33:55;4.47;;;4.07;;
16965;SDS011;8599;47.852;12.070;2022-08-19T09:36:23;5.72;;;4.10;;
16965;SDS011;8599;47.852;12.070;2022-08-19T09:38:51;4.47;;;4.00;;
16965;SDS011;8599;47.852;12.070;2022-08-19T09:41:19;5.13;;;4.57;;
16965;SDS011;8599;47.852;12.070;2022-08-19T09:43:49;5.78;;;4.95;;
16965;SDS011;8599;47.852;12.070;2022-08-19T09:46:20;4.35;;;3.88;;
16965;SDS011;8599;47.852;12.070;2022-08-19T09:48:47;5.45;;;4.80;;
16965;SDS011;8599;47.852;12.070;2022-08-19T09:51:17;5.22;;;4.65;;
16965;SDS011;8599;47.852;12.070;2022-08-19T09:53:47;5.43;;;4.93;;
16965;SDS011;8599;47.852;12.070;2022-08-19T09:56:16;5.05;;;4.55;;
16965;SDS011;8599;47.852;12.070;2022-08-19T09:58:45;4.82;;;4.30;;
16965;SDS011;8599;47.852;12.070;2022-08-19T10:01:15;5.00;;;4.53;;
16965;SDS011;8599;47.852;12.070;2022-08-19T10:03:46;7.07;;;4.70;;
16965;SDS011;8599;47.852;12.070;2022-08-19T10:06:14;5.10;;;4.53;;
16965;SDS011;8599;47.852;12.070;2022-08-19T10:08:41;4.80;;;4.30;;
16965;SDS011;8599;47.852;12.070;2022-08-19T10:11:08;5.97;;;4.80;;
16965;SDS011;8599;47.852;12.070;2022-08-19T10:13:35;6.15;;;5.25;;
16965;SDS011;8599;47.852;12.070;2022-08-19T10:16:03;6.35;;;5.22;;
16965;SDS011;8599;47.852;12.070;2022-08-19T10:18:33;4.68;;;4.05;;
16965;SDS011;8599;47.852;12.070;2022-08-19T10:21:05;6.00;;;3.75;;
16965;SDS011;8599;47.852;12.070;2022-08-19T10:23:34;5.03;;;4.30;;
16965;SDS011;8599;47.852;12.070;2022-08-19T10:26:02;5.55;;;5.03;;
16965;SDS011;8599;47.852;12.070;2022-08-19T10:28:31;5.00;;;4.50;;
16965;SDS011;8599;47.852;12.070;2022-08-19T10:31:02;5.75;;;5.15;;
16965;SDS011;8599;47.852;12.070;2022-08-19T10:33:31;5.97;;;5.38;;
16965;SDS011;8599;47.852;12.070;2022-08-19T10:35:59;6.70;;;5.90;;
16965;SDS011;8599;47.852;12.070;2022-08-19T10:38:28;6.30;;;5.70;;
16965;SDS011;8599;47.852;12.070;2022-08-19T10:40:56;7.47;;;5.05;;
16965;SDS011;8599;47.852;12.070;2022-08-19T10:43:23;7.40;;;5.55;;
16965;SDS011;8599;47.852;12.070;2022-08-19T10:45:54;7.45;;;5.40;;
16965;SDS011;8599;47.852;12.070;2022-08-19T10:48:24;4.97;;;4.47;;
16965;SDS011;8599;47.852;12.070;2022-08-19T10:50:51;6.07;;;5.47;;
16965;SDS011;8599;47.852;12.070;2022-08-19T10:53:36;7.45;;;5.93;;
16965;SDS011;8599;47.852;12.070;2022-08-19T10:56:03;7.03;;;6.25;;
16965;SDS011;8599;47.852;12.070;2022-08-19T10:58:48;7.75;;;6.95;;
16965;SDS011;8599;47.852;12.070;2022-08-19T11:01:15;10.43;;;6.00;;
16965;SDS011;8599;47.852;12.070;2022-08-19T11:03:42;8.60;;;5.50;;
16965;SDS011;8599;47.852;12.070;2022-08-19T11:06:10;8.52;;;6.75;;
16965;SDS011;8599;47.852;12.070;2022-08-19T11:08:39;7.40;;;5.53;;
16965;SDS011;8599;47.852;12.070;2022-08-19T11:11:06;8.10;;;6.43;;
16965;SDS011;8599;47.852;12.070;2022-08-19T11:13:35;7.03;;;5.63;;
16965;SDS011;8599;47.852;12.070;2022-08-19T11:16:04;5.82;;;5.22;;
16965;SDS011;8599;47.852;12.070;2022-08-19T11:18:35;6.05;;;5.40;;
16965;SDS011;8599;47.852;12.070;2022-08-19T11:21:07;6.82;;;5.47;;
16965;SDS011;8599;47.852;12.070;2022-08-19T11:23:36;4.35;;;3.95;;
16965;SDS011;8599;47.852;12.070;2022-08-19T11:26:05;6.80;;;3.97;;
16965;SDS011;8599;47.852;12.070;2022-08-19T11:28:32;3.60;;;3.30;;
16965;SDS011;8599;47.852;12.070;2022-08-19T11:30:59;3.53;;;3.22;;
16965;SDS011;8599;47.852;12.070;2022-08-19T11:33:28;6.40;;;3.90;;
16965;SDS011;8599;47.852;12.070;2022-08-19T11:35:56;5.60;;;4.25;;
16965;SDS011;8599;47.852;12.070;2022-08-19T11:38:24;4.35;;;3.95;;
16965;SDS011;8599;47.852;12.070;2022-08-19T11:40:56;4.57;;;3.38;;
16965;SDS011;8599;47.852;12.070;2022-08-19T11:43:24;2.80;;;2.60;;
16965;SDS011;8599;47.852;12.070;2022-08-19T11:45:52;7.25;;;3.00;;
16965;SDS011;8599;47.852;12.070;2022-08-19T11:48:19;3.30;;;3.00;;
16965;SDS011;8599;47.852;12.070;2022-08-19T11:50:47;3.70;;;3.05;;
16965;SDS011;8599;47.852;12.070;2022-08-19T11:53:14;3.05;;;2.80;;
16965;SDS011;8599;47.852;12.070;2022-08-19T11:55:43;4.68;;;3.28;;
16965;SDS011;8599;47.852;12.070;2022-08-19T11:58:12;3.75;;;3.45;;
16965;SDS011;8599;47.852;12.070;2022-08-19T12:00:40;5.75;;;3.55;;
16965;SDS011;8599;47.852;12.070;2022-08-19T12:03:10;4.47;;;4.00;;
16965;SDS011;8599;47.852;12.070;2022-08-19T12:05:37;5.10;;;3.80;;
16965;SDS011;8599;47.852;12.070;2022-08-19T12:08:05;3.97;;;3.55;;
16965;SDS011;8599;47.852;12.070;2022-08-19T12:10:33;4.43;;;3.97;;
16965;SDS011;8599;47.852;12.070;2022-08-19T12:13:00;5.35;;;3.83;;
16965;SDS011;8599;47.852;12.070;2022-08-19T12:15:28;3.50;;;3.20;;
16965;SDS011;8599;47.852;12.070;2022-08-19T12:17:56;3.65;;;3.35;;
16965;SDS011;8599;47.852;12.070;2022-08-19T12:20:23;5.53;;;3.47;;
16965;SDS011;8599;47.852;12.070;2022-08-19T12:22:51;4.85;;;3.97;;
16965;SDS011;8599;47.852;12.070;2022-08-19T12:25:18;3.60;;;3.30;;
16965;SDS011;8599;47.852;12.070;2022-08-19T12:27:45;2.95;;;2.65;;
16965;SDS011;8599;47.852;12.070;2022-08-19T12:30:14;4.80;;;3.40;;
16965;SDS011;8599;47.852;12.070;2022-08-19T12:32:43;3.13;;;2.92;;
16965;SDS011;8599;47.852;12.070;2022-08-19T12:35:10;4.45;;;3.40;;
16965;SDS011;8599;47.852;12.070;2022-08-19T12:37:37;3.35;;;3.05;;
16965;SDS011;8599;47.852;12.070;2022-08-19T12:40:09;3.92;;;3.30;;
16965;SDS011;8599;47.852;12.070;2022-08-19T12:42:38;4.38;;;3.65;;
16965;SDS011;8599;47.852;12.070;2022-08-19T12:45:07;3.40;;;3.10;;
16965;SDS011;8599;47.852;12.070;2022-08-19T12:47:35;3.00;;;2.60;;
16965;SDS011;8599;47.852;12.070;2022-08-19T12:50:04;2.92;;;2.72;;
16965;SDS011;8599;47.852;12.070;2022-08-19T12:52:33;3.92;;;2.83;;
16965;SDS011;8599;47.852;12.070;2022-08-19T12:55:02;2.38;;;2.20;;
16965;SDS011;8599;47.852;12.070;2022-08-19T12:57:29;2.70;;;2.15;;
16965;SDS011;8599;47.852;12.070;2022-08-19T12:59:58;2.85;;;2.65;;
16965;SDS011;8599;47.852;12.070;2022-08-19T13:02:26;4.25;;;2.15;;
16965;SDS011;8599;47.852;12.070;2022-08-19T13:04:53;2.92;;;2.63;;
16965;SDS011;8599;47.852;12.070;2022-08-19T13:07:21;3.63;;;2.22;;
16965;SDS011;8599;47.852;12.070;2022-08-19T13:09:50;2.38;;;2.20;;
16965;SDS011;8599;47.852;12.070;2022-08-19T13:12:18;2.72;;;2.35;;
16965;SDS011;8599;47.852;12.070;2022-08-19T13:14:45;2.55;;;2.22;;
16965;SDS011;8599;47.852;12.070;2022-08-19T13:17:16;3.83;;;2.13;;
16965;SDS011;8599;47.852;12.070;2022-08-19T13:19:42;2.70;;;2.25;;
16965;SDS011;8599;47.852;12.070;2022-08-19T13:22:09;2.33;;;1.95;;
16965;SDS011;8599;47.852;12.070;2022-08-19T13:24:38;2.88;;;2.10;;
16965;SDS011;8599;47.852;12.070;2022-08-19T13:27:05;2.15;;;2.00;;
16965;SDS011;8599;47.852;12.070;2022-08-19T13:29:32;1.80;;;1.70;;
16965;SDS011;8599;47.852;12.070;2022-08-19T13:32:16;2.90;;;1.98;;
16965;SDS011;8599;47.852;12.070;2022-08-19T13:35:01;2.35;;;2.10;;
16965;SDS011;8599;47.852;12.070;2022-08-19T13:37:28;2.42;;;2.22;;
16965;SDS011;8599;47.852;12.070;2022-08-19T13:40:15;2.08;;;1.98;;
16965;SDS011;8599;47.852;12.070;2022-08-19T13:42:43;2.75;;;2.00;;
16965;SDS011;8599;47.852;12.070;2022-08-19T13:45:13;2.83;;;2.30;;
16965;SDS011;8599;47.852;12.070;2022-08-19T13:47:41;2.58;;;2.08;;
16965;SDS011;8599;47.852;12.070;2022-08-19T13:50:10;2.63;;;2.20;;
16965;SDS011;8599;47.852;12.070;2022-08-19T13:52:37;2.10;;;2.00;;
16965;SDS011;8599;47.852;12.070;2022-08-19T13:55:05;2.97;;;2.78;;
16965;SDS011;8599;47.852;12.070;2022-08-19T13:57:34;3.38;;;2.47;;
16965;SDS011;8599;47.852;12.070;2022-08-19T14:00:05;2.72;;;2.53;;
16965;SDS011;8599;47.852;12.070;2022-08-19T14:02:35;2.45;;;2.25;;
16965;SDS011;8599;47.852;12.070;2022-08-19T14:05:02;2.67;;;2.47;;
16965;SDS011;8599;47.852;12.070;2022-08-19T14:07:30;3.00;;;2.75;;
16965;SDS011;8599;47.852;12.070;2022-08-19T14:09:57;3.05;;;2.78;;
16965;SDS011;8599;47.852;12.070;2022-08-19T14:12:24;5.82;;;2.67;;
16965;SDS011;8599;47.852;12.070;2022-08-19T14:14:52;3.45;;;2.25;;
16965;SDS011;8599;47.852;12.070;2022-08-19T14:17:21;1.98;;;1.88;;
16965;SDS011;8599;47.852;12.070;2022-08-19T14:19:49;3.55;;;2.58;;
16965;SDS011;8599;47.852;12.070;2022-08-19T14:22:21;3.72;;;2.47;;
16965;SDS011;8599;47.852;12.070;2022-08-19T14:24:48;2.70;;;2.50;;
16965;SDS011;8599;47.852;12.070;2022-08-19T14:27:15;2.88;;;2.60;;
16965;SDS011;8599;47.852;12.070;2022-08-19T14:29:42;3.58;;;3.28;;
16965;SDS011;8599;47.852;12.070;2022-08-19T14:32:11;4.10;;;3.05;;
16965;SDS011;8599;47.852;12.070;2022-08-19T14:34:38;6.28;;;2.85;;
16965;SDS011;8599;47.852;12.070;2022-08-19T14:37:05;3.33;;;3.03;;
16965;SDS011;8599;47.852;12.070;2022-08-19T14:39:34;3.40;;;3.08;;
16965;SDS011;8599;47.852;12.070;2022-08-19T14:42:01;6.70;;;3.13;;
16965;SDS011;8599;47.852;12.070;2022-08-19T14:44:33;2.70;;;2.50;;
16965;SDS011;8599;47.852;12.070;2022-08-19T14:47:00;2.10;;;1.92;;
16965;SDS011;8599;47.852;12.070;2022-08-19T14:49:28;3.75;;;1.90;;
16965;SDS011;8599;47.852;12.070;2022-08-19T14:51:55;1.75;;;1.35;;
16965;SDS011;8599;47.852;12.070;2022-08-19T14:54:22;1.45;;;1.27;;
16965;SDS011;8599;47.852;12.070;2022-08-19T14:56:49;1.70;;;1.60;;